Flight Track Log - Related Links

Times and Time Zones

All times are in EDT time to prevent confusion due to time zone crossing. See the N75ZM flight status page for this flight to view local times or setup timezone preferences in your user account.

Time Position Orientation Groundspeed Altitude Reporting Facility
EDT Latitude Longitude Course Direction KTS MPH feet Rate Location/Type
Sun 11:52:00 AM 34.6276 -82.1754 172° South  Level Estimated
Sun 11:53:00 AM 34.5831 -82.1667 171° South  Level FlightAware Approximate
Sun 11:54:00 AM 34.5386 -82.1580 171° South  Level FlightAware Approximate
Sun 11:55:00 AM 34.4941 -82.1494 171° South  Level FlightAware Approximate
Sun 11:56:00 AM 34.4496 -82.1407 171° South  Level FlightAware Approximate
Sun 11:57:00 AM 34.4051 -82.1321 171° South  Level FlightAware Approximate
Sun 11:58:00 AM 34.3605 -82.1234 171° South  Level FlightAware Approximate
Sun 11:59:00 AM 34.3159 -82.1163 172° South  Level Estimated
Sun 12:00:00 PM 34.2713 -82.1085 172° South  Level FlightAware Approximate
Sun 12:01:00 PM 34.2267 -82.1006 172° South  Level FlightAware Approximate
Sun 12:02:00 PM 34.1821 -82.0927 172° South  Level FlightAware Approximate
Sun 12:03:00 PM 34.1375 -82.0848 172° South  Level FlightAware Approximate
Sun 12:04:00 PM 34.0929 -82.0769 172° South  Level FlightAware Approximate
Sun 12:05:00 PM 34.0483 -82.0691 172° South  Level FlightAware Approximate
Sun 12:06:00 PM 34.0037 -82.0612 172° South  Level FlightAware Approximate
Sun 12:07:00 PM 33.9591 -82.0534 172° South  Level FlightAware Approximate
Sun 12:08:00 PM 33.9145 -82.0455 172° South  Level FlightAware Approximate
Sun 12:09:00 PM 33.8699 -82.0377 172° South  Level FlightAware Approximate
Sun 12:10:00 PM 33.8253 -82.0299 172° South  Level FlightAware Approximate
Sun 12:11:00 PM 33.7807 -82.0221 172° South  Level FlightAware Approximate
Sun 12:12:00 PM 33.7361 -82.0143 172° South  Level FlightAware Approximate
Sun 12:13:00 PM 33.6914 -82.0065 172° South  Level FlightAware Approximate
Sun 12:14:00 PM 33.6467 -81.9997 174° South  Level Estimated
Sun 12:15:00 PM 33.6020 -81.9930 173° South  Level FlightAware Approximate
Sun 12:16:00 PM 33.5573 -81.9862 173° South  Level FlightAware Approximate
Sun 12:17:00 PM 33.5126 -81.9795 173° South  Level FlightAware Approximate
Sun 12:18:00 PM 33.4678 -81.9728 173° South  Level FlightAware Approximate
Sun 12:19:00 PM 33.4231 -81.9661 173° South  Level FlightAware Approximate
Sun 12:20:00 PM 33.3784 -81.9594 173° South  Level FlightAware Approximate
Sun 12:21:00 PM 33.3336 -81.9527 173° South  Level FlightAware Approximate
Sun 12:22:00 PM 33.2889 -81.9461 173° South  Level FlightAware Approximate
Sun 12:23:00 PM 33.2442 -81.9394 173° South  Level FlightAware Approximate
Sun 12:24:00 PM 33.1995 -81.9327 173° South  Level FlightAware Approximate
Sun 12:25:00 PM 33.1547 -81.9260 172° South  Level Estimated
Sun 12:26:00 PM 33.1100 -81.9191 173° South  Level FlightAware Approximate
Sun 12:27:00 PM 33.0653 -81.9123 173° South  Level FlightAware Approximate
Sun 12:28:00 PM 33.0206 -81.9056 172° South  Level Estimated
Sun 12:29:00 PM 32.9759 -81.8984 172° South  Level FlightAware Approximate
Sun 12:29:55 PM 33.1144 -81.9233 172° South 162 186 9,100  Level Atlanta Center
Sun 12:30:00 PM 32.9313 -81.8913 172° South  Level FlightAware Approximate
Sun 12:30:55 PM 33.0664 -81.9194 176° South 162 186 9,100  Level Atlanta Center
Sun 12:31:00 PM 32.8866 -81.8841 172° South  Level FlightAware Approximate
Sun 12:31:55 PM 33.0244 -81.9131 173° South 167 192 9,100  Level Atlanta Center
Sun 12:32:00 PM 32.8419 -81.8770 172° South  Level FlightAware Approximate
Sun 12:33:00 PM 32.7972 -81.8699 172° South  Level FlightAware Approximate
Sun 12:33:39 PM 32.9497 -81.9025 173° South 161 185 9,100  Level Jacksonville Center
Sun 12:34:00 PM 32.7525 -81.8628 172° South  Level FlightAware Approximate
Sun 12:34:39 PM 32.9058 -81.8906 167° South 161 185 9,100  Level Jacksonville Center
Sun 12:35:39 PM 32.8597 -81.8861 175° South 161 185 9,100 100 Level Jacksonville Center
Sun 12:36:39 PM 32.8158 -81.8792 172° South 161 185 9,300 300 Climbing Jacksonville Center
Sun 12:37:39 PM 32.7742 -81.8722 172° South 161 185 9,700 450 Climbing Jacksonville Center
Sun 12:38:39 PM 32.7344 -81.8628 169° South 161 185 10,200 500 Climbing Jacksonville Center
Sun 12:39:39 PM 32.6947 -81.8608 178° South 156 180 10,700 450 Climbing Jacksonville Center
Sun 12:40:39 PM 32.6550 -81.8564 175° South 145 167 11,100 200 Climbing Jacksonville Center
Sun 12:41:39 PM 32.6111 -81.8494 172° South 145 167 11,100  Level Jacksonville Center
Sun 12:42:39 PM 32.5736 -81.8447 174° South 145 167 11,100  Level Jacksonville Center
Sun 12:43:39 PM 32.5253 -81.8381 173° South 151 174 11,100  Level Jacksonville Center
Sun 12:44:39 PM 32.4836 -81.8311 172° South 151 174 11,100  Level Jacksonville Center
Sun 12:45:39 PM 32.4458 -81.8242 171° South 158 182 11,100  Level Jacksonville Center
Sun 12:46:39 PM 32.4000 -81.8172 173° South 158 182 11,100  Level Jacksonville Center
Sun 12:47:39 PM 32.3561 -81.8131 175° South 158 182 11,100  Level Jacksonville Center
Sun 12:48:39 PM 32.3164 -81.8061 172° South 158 182 11,100  Level Jacksonville Center
Sun 12:49:39 PM 32.2725 -81.7992 172° South 158 182 11,100  Level Jacksonville Center
Sun 12:50:39 PM 32.2328 -81.7922 172° South 158 182 11,100  Level Jacksonville Center
Sun 12:51:39 PM 32.1867 -81.7856 173° South 157 181 11,100  Level Jacksonville Center
Sun 12:52:39 PM 32.1450 -81.7786 172° South 157 181 11,100  Level Jacksonville Center
Sun 12:53:39 PM 32.1072 -81.7742 174° South 157 181 11,100  Level Jacksonville Center
Sun 12:54:39 PM 32.0614 -81.7675 173° South 157 181 11,100  Level Jacksonville Center
Sun 12:55:39 PM 32.0217 -81.7606 172° South 157 181 11,100  Level Jacksonville Center
Sun 12:56:39 PM 31.9756 -81.7561 175° South 157 181 11,100  Level Jacksonville Center
Sun 12:57:39 PM 31.9381 -81.7492 171° South 157 181 11,100 50 Level Jacksonville Center
Sun 12:58:39 PM 31.8961 -81.7450 175° South 157 181 11,200  Climbing Jacksonville Center
Sun 12:59:39 PM 31.8503 -81.7358 170° South 157 181 11,100 -50 Descending Jacksonville Center
Sun 01:00:39 PM 31.8125 -81.7289 171° South 157 181 11,100  Level Jacksonville Center
Sun 01:01:39 PM 31.7644 -81.7244 176° South 157 181 11,100 -50 Level Jacksonville Center
Sun 01:02:39 PM 31.7225 -81.7153 169° South 157 181 11,000  Descending Jacksonville Center
Sun 01:03:39 PM 31.6850 -81.7108 174° South 157 181 11,100 50 Climbing Jacksonville Center
Sun 01:04:39 PM 31.6369 -81.7042 173° South 157 181 11,100  Level Jacksonville Center
Sun 01:05:39 PM 31.5950 -81.6975 172° South 157 181 11,100  Level Jacksonville Center
Sun 01:06:39 PM 31.5575 -81.6906 171° South 157 181 11,100  Level Jacksonville Center
Sun 01:07:39 PM 31.5094 -81.6839 173° South 157 181 11,100  Level Jacksonville Center
Sun 01:08:39 PM 31.4697 -81.6794 175° South 157 181 11,100 -150 Level Jacksonville Center
Sun 01:09:39 PM 31.4217 -81.6728 173° South 162 186 10,800 -350 Descending Jacksonville Center
Sun 01:10:39 PM 31.3756 -81.6636 170° South 167 192 10,400 -350 Descending Jacksonville Center
Sun 01:11:39 PM 31.3297 -81.6619 178° South 167 192 10,100 -400 Descending Jacksonville Center
Sun 01:12:39 PM 31.2794 -81.6528 171° South 174 200 9,600 -484 Descending Jacksonville Center
Sun 01:12:41 PM 31.2772 -81.6553 224° Southwest 170 196 9,600 -462 Level Jacksonville Center
Sun 01:13:18 PM 31.2481 -81.6458 165° South 171 197 9,300 -414 Descending Jacksonville Center
Sun 01:13:39 PM 31.2333 -81.6461 181° South 174 200 9,200 -393 Descending Jacksonville Center
Sun 01:14:19 PM 31.2019 -81.6417 173° South 170 196 8,900 -400 Descending Jacksonville Center
Sun 01:14:39 PM 31.1853 -81.6394 173° South 174 200 8,800 -393 Descending Jacksonville Center
Sun 01:15:20 PM 31.1539 -81.6325 169° South 171 197 8,500 -400 Descending Jacksonville Center
Sun 01:15:39 PM 31.1433 -81.6303 170° South 179 206 8,400 -400 Descending Jacksonville Center
Sun 01:16:20 PM 31.1058 -81.6283 177° South 174 200 8,100 -300 Descending Jacksonville Center
Sun 01:16:39 PM 31.0953 -81.6236 159° South 180 207 8,100  Level Jacksonville Center
Sun 01:17:21 PM 31.0556 -81.6194 175° South 169 194 8,100 100 Level Jacksonville Center
Sun 01:17:39 PM 31.0472 -81.6194 180° South 180 207 8,200 98 Climbing Jacksonville Center
Sun 01:18:22 PM 31.0097 -81.6128 171° South 161 185 8,200  Level Jacksonville Center
Sun 01:18:39 PM 31.0014 -81.6128 180° South 180 207 8,200 -97 Level Jacksonville Center
Sun 01:19:24 PM 30.9678 -81.6061 170° South 161 185 8,100  Descending Jacksonville Center
Sun 01:19:39 PM 30.9575 -81.6061 180° South 180 207 8,200 100 Climbing Jacksonville Center
Sun 01:20:24 PM 30.9239 -81.6017 174° South 159 183 8,200  Level Jacksonville Center
Sun 01:20:39 PM 30.9156 -81.6019 182° South 175 201 8,200 -80 Level Jacksonville Center
Sun 01:21:39 PM 30.8694 -81.5928 170° South 170 196 8,100  Descending Jacksonville Center
Sun 01:22:27 PM 30.8319 -81.5861 171° South 159 183 8,200 56 Climbing Jacksonville Center
Sun 01:23:27 PM 30.7858 -81.5819 176° South 159 183 8,200 -98 Level Jacksonville Center
Sun 01:24:29 PM 30.7419 -81.5753 173° South 159 183 8,000 -488 Descending Jacksonville Center
Sun 01:25:30 PM 30.6961 -81.5686 173° South 168 193 7,200 -836 Descending Jacksonville Center
Sun 01:26:31 PM 30.6458 -81.5622 174° South 171 197 6,300 -787 Descending Jacksonville Center
Sun 01:27:32 PM 30.5978 -81.5603 178° South 173 199 5,600 -738 Descending Jacksonville Center
Sun 01:28:33 PM 30.5478 -81.5636 183° South 173 199 4,800 -738 Descending Jacksonville Center
Sun 01:29:34 PM 30.4997 -81.5642 181° South 173 199 4,100 -738 Descending Jacksonville Center
Sun 01:30:35 PM 30.4539 -81.5647 181° South 167 192 3,300 -738 Descending Jacksonville Center
Sun 01:31:36 PM 30.4078 -81.5678 183° South 164 189 2,600 -787 Descending Jacksonville Center
Sun 01:32:37 PM 30.3619 -81.5683 181° South 147 169 1,700 -639 Descending Jacksonville Center
Sun 01:33:38 PM 30.3283 -81.5544 160° South 118 136 1,300 -492 Descending Jacksonville Center
Sun 01:34:39 PM 30.3178 -81.5331 120° Southeast 90 104 700 -443 Descending Jacksonville Center
Sun 01:35:40 PM 30.3261 -81.5233 45° Northeast 77 89 400 -295 Descending Jacksonville Center

Login

Don't have an account? Register now (free) for customized features, flight alerts, and more!